createdAt,value
2018-08-20T00:02:05.281Z,58.40
2018-08-20T00:04:38.828Z,58.30
2018-08-20T00:07:07.264Z,58.40
2018-08-20T00:09:41.224Z,58.40
2018-08-20T00:12:10.093Z,58.50
2018-08-20T00:14:38.679Z,58.40
2018-08-20T00:17:07.151Z,59.20
2018-08-20T00:19:35.600Z,58.50
2018-08-20T00:22:04.437Z,58.60
2018-08-20T00:24:32.856Z,58.60
2018-08-20T00:27:02.694Z,58.70
2018-08-20T00:29:31.577Z,58.80
2018-08-20T00:31:59.991Z,58.80
2018-08-20T00:34:28.407Z,58.80
2018-08-20T00:36:56.784Z,58.80
2018-08-20T00:39:25.204Z,58.80
2018-08-20T00:41:53.601Z,58.90
2018-08-20T00:44:22.107Z,58.80
2018-08-20T00:46:50.518Z,58.90
2018-08-20T00:49:18.940Z,58.90
2018-08-20T00:51:47.353Z,58.90
2018-08-20T00:54:15.759Z,59.50
2018-08-20T00:56:44.176Z,59.50
2018-08-20T00:59:12.684Z,58.90
2018-08-20T01:01:41.107Z,59.00
2018-08-20T01:04:09.518Z,59.00
2018-08-20T01:06:37.923Z,59.00
2018-08-20T01:09:07.644Z,59.00
2018-08-20T01:11:36.315Z,59.10
2018-08-20T01:14:05.056Z,59.00
2018-08-20T01:16:33.507Z,59.10
2018-08-20T01:19:01.904Z,59.20
2018-08-20T01:21:30.344Z,59.30
2018-08-20T01:23:58.783Z,59.30
2018-08-20T01:26:27.204Z,59.30
2018-08-20T01:28:55.618Z,59.30
2018-08-20T01:31:24.048Z,59.30
2018-08-20T01:33:52.953Z,59.30
2018-08-20T01:36:21.347Z,59.40
2018-08-20T01:38:49.745Z,59.50
2018-08-20T01:41:18.138Z,59.20
2018-08-20T01:43:46.550Z,59.70
2018-08-20T01:46:14.959Z,59.70
2018-08-20T01:48:43.343Z,59.60
2018-08-20T01:51:11.752Z,59.70
2018-08-20T01:53:40.142Z,59.70
2018-08-20T01:56:08.587Z,59.80
2018-08-20T01:58:36.999Z,59.80
2018-08-20T02:01:05.414Z,59.80
2018-08-20T02:03:33.826Z,59.90
2018-08-20T02:06:02.204Z,59.90
2018-08-20T02:08:30.622Z,59.90
2018-08-20T02:10:59.038Z,59.90
2018-08-20T02:13:27.475Z,60.10
2018-08-20T02:15:55.901Z,60.10
2018-08-20T02:18:24.330Z,60.20
2018-08-20T02:20:52.736Z,60.20
2018-08-20T02:23:21.142Z,60.10
2018-08-20T02:25:49.555Z,60.20
2018-08-20T02:28:17.962Z,60.20
2018-08-20T02:30:46.387Z,60.30
2018-08-20T02:33:14.783Z,61.10
2018-08-20T02:35:43.202Z,60.40
2018-08-20T02:38:11.631Z,60.40
2018-08-20T02:40:40.028Z,60.40
2018-08-20T02:43:08.414Z,60.40
2018-08-20T02:45:36.859Z,60.30
2018-08-20T02:48:05.536Z,60.30
2018-08-20T02:50:33.920Z,60.50
2018-08-20T02:53:02.379Z,60.50
2018-08-20T02:55:30.782Z,60.50
2018-08-20T02:57:59.203Z,60.60
2018-08-20T03:00:27.599Z,60.60
2018-08-20T03:03:00.256Z,60.60
2018-08-20T03:05:28.659Z,61.50
2018-08-20T03:07:57.060Z,60.70
2018-08-20T03:10:25.476Z,61.50
2018-08-20T03:12:53.901Z,60.60
2018-08-20T03:15:22.288Z,60.70
2018-08-20T03:17:50.743Z,60.80
2018-08-20T03:20:19.187Z,60.80
2018-08-20T03:22:47.573Z,60.80
2018-08-20T03:25:15.947Z,60.90
2018-08-20T03:27:44.297Z,61.00
2018-08-20T03:30:12.739Z,60.80
2018-08-20T03:32:41.277Z,60.70
2018-08-20T03:35:11.201Z,60.70
2018-08-20T03:37:39.673Z,60.80
2018-08-20T03:40:10.251Z,60.80
2018-08-20T03:42:38.613Z,61.00
2018-08-20T03:45:07.795Z,61.00
2018-08-20T03:47:36.172Z,61.00
2018-08-20T03:50:06.672Z,61.10
2018-08-20T03:52:35.055Z,61.20
2018-08-20T03:55:03.427Z,61.40
2018-08-20T03:57:31.752Z,61.40
2018-08-20T04:00:00.112Z,61.40
2018-08-20T04:02:28.443Z,61.30
2018-08-20T04:04:56.836Z,62.30
2018-08-20T04:07:25.153Z,61.60
2018-08-20T04:09:53.462Z,61.60
2018-08-20T04:12:21.805Z,61.60
2018-08-20T04:14:50.130Z,62.30
2018-08-20T04:17:18.541Z,61.70
2018-08-20T04:19:46.917Z,61.70
2018-08-20T04:22:15.282Z,61.90
2018-08-20T04:24:43.627Z,61.90
2018-08-20T04:27:11.988Z,61.90
2018-08-20T04:29:40.318Z,61.90
2018-08-20T04:32:08.849Z,62.00
2018-08-20T04:34:37.205Z,62.00
2018-08-20T04:37:05.681Z,61.90
2018-08-20T04:39:34.019Z,61.90
2018-08-20T04:42:02.415Z,62.20
2018-08-20T04:44:30.719Z,62.40
2018-08-20T04:46:59.058Z,62.70
2018-08-20T04:49:27.442Z,62.70
2018-08-20T04:51:55.831Z,62.50
2018-08-20T04:54:24.234Z,62.40
2018-08-20T04:56:52.799Z,62.40
2018-08-20T04:59:21.239Z,62.40
2018-08-20T05:01:49.648Z,62.60
2018-08-20T05:04:18.083Z,62.80
2018-08-20T05:06:46.479Z,62.80
2018-08-20T05:09:14.892Z,62.90
2018-08-20T05:11:43.317Z,63.00
2018-08-20T05:14:11.732Z,63.10
2018-08-20T05:16:40.129Z,63.10
2018-08-20T05:19:08.597Z,63.30
2018-08-20T05:21:37.031Z,63.40
2018-08-20T05:24:05.469Z,63.50
2018-08-20T05:26:33.935Z,63.40
2018-08-20T05:29:02.335Z,63.90
2018-08-20T05:31:30.783Z,64.20
2018-08-20T05:33:59.211Z,64.60
2018-08-20T05:36:27.710Z,64.80
2018-08-20T05:38:56.167Z,64.80
2018-08-20T05:41:24.618Z,64.80
2018-08-20T05:43:56.492Z,64.70
2018-08-20T05:46:24.923Z,64.40
2018-08-20T05:48:53.337Z,64.50
2018-08-20T05:51:21.791Z,64.60
2018-08-20T05:53:50.335Z,64.60
2018-08-20T05:56:18.932Z,64.60
2018-08-20T05:58:47.732Z,64.60
2018-08-20T06:01:16.243Z,64.50
2018-08-20T06:03:44.754Z,64.80
2018-08-20T06:06:13.168Z,64.90
2018-08-20T06:08:41.683Z,64.60
2018-08-20T06:11:10.320Z,64.60
2018-08-20T06:13:38.819Z,64.70
2018-08-20T06:16:07.275Z,64.60
2018-08-20T06:18:35.630Z,64.70
2018-08-20T06:21:04.005Z,64.80
2018-08-20T06:23:32.380Z,64.80
2018-08-20T06:26:00.783Z,64.70
2018-08-20T06:28:29.192Z,64.60
2018-08-20T06:30:57.627Z,64.60
2018-08-20T06:33:25.998Z,64.80
2018-08-20T06:35:54.406Z,64.80
2018-08-20T06:38:22.757Z,64.80
2018-08-20T06:40:51.137Z,64.90
2018-08-20T06:43:19.571Z,65.30
2018-08-20T06:45:47.942Z,65.50
2018-08-20T06:48:16.389Z,65.30
2018-08-20T06:50:44.807Z,65.40
2018-08-20T06:53:13.782Z,65.70
2018-08-20T06:55:42.391Z,65.80
2018-08-20T06:58:10.821Z,66.10
2018-08-20T07:00:39.281Z,66.30
2018-08-20T07:03:07.744Z,66.50
2018-08-20T07:05:36.155Z,66.50
2018-08-20T07:08:04.584Z,66.40
2018-08-20T07:10:42.224Z,66.50
2018-08-20T07:13:29.260Z,66.70
2018-08-20T07:15:57.679Z,66.80
2018-08-20T07:18:26.107Z,66.70
2018-08-20T07:20:54.547Z,67.00
2018-08-20T07:23:22.969Z,66.90
2018-08-20T07:25:51.429Z,67.20
2018-08-20T07:28:19.873Z,67.20
2018-08-20T07:30:48.309Z,67.40
2018-08-20T07:33:16.867Z,67.70
2018-08-20T07:35:45.547Z,67.60
2018-08-20T07:38:13.945Z,67.80
2018-08-20T07:40:42.408Z,67.80
2018-08-20T07:43:11.016Z,67.90
2018-08-20T07:45:39.496Z,67.80
2018-08-20T07:48:07.928Z,67.90
2018-08-20T07:50:36.423Z,67.90
2018-08-20T07:53:05.076Z,67.90
2018-08-20T07:55:33.524Z,67.80
2018-08-20T07:58:01.983Z,68.10
2018-08-20T08:00:30.419Z,67.90
2018-08-20T08:02:58.847Z,67.90
2018-08-20T08:05:27.299Z,68.00
2018-08-20T08:07:55.788Z,67.90
2018-08-20T08:10:24.200Z,68.10
2018-08-20T08:12:52.695Z,68.10
2018-08-20T08:15:21.154Z,68.10
2018-08-20T08:17:49.586Z,68.30
2018-08-20T08:20:18.052Z,68.20
2018-08-20T08:22:46.503Z,68.20
2018-08-20T08:25:15.015Z,68.30
2018-08-20T08:27:43.530Z,68.50
2018-08-20T08:30:16.909Z,68.40
2018-08-20T08:32:45.748Z,68.20
2018-08-20T08:35:14.571Z,68.30
2018-08-20T08:37:43.056Z,69.20
2018-08-20T08:40:13.278Z,68.30
2018-08-20T08:42:41.737Z,68.30
2018-08-20T08:45:16.634Z,68.90
2018-08-20T08:47:45.742Z,68.30
2018-08-20T08:50:15.134Z,68.30
2018-08-20T08:52:43.875Z,68.70
2018-08-20T08:55:12.351Z,68.50
2018-08-20T08:57:40.824Z,68.30
2018-08-20T09:00:12.448Z,68.50
2018-08-20T09:02:40.879Z,68.70
2018-08-20T09:05:10.543Z,68.50
2018-08-20T09:07:39.258Z,68.50
2018-08-20T09:10:08.031Z,68.50
2018-08-20T09:12:36.820Z,68.40
2018-08-20T09:15:07.556Z,68.30
2018-08-20T09:17:36.020Z,68.50
2018-08-20T09:20:05.651Z,68.70
2018-08-20T09:22:34.080Z,68.70
2018-08-20T09:25:02.501Z,68.60
2018-08-20T09:27:30.939Z,68.40
2018-08-20T09:29:59.433Z,68.50
2018-08-20T09:32:27.892Z,68.50
2018-08-20T09:34:56.343Z,68.40
2018-08-20T09:37:24.781Z,68.10
2018-08-20T09:39:53.195Z,68.20
2018-08-20T09:42:21.608Z,68.30
2018-08-20T09:44:50.074Z,68.20
2018-08-20T09:47:18.491Z,67.90
2018-08-20T09:49:46.910Z,67.80
2018-08-20T09:52:15.330Z,67.30
2018-08-20T09:54:43.767Z,67.30
2018-08-20T09:57:12.198Z,66.70
2018-08-20T09:59:41.035Z,66.30
2018-08-20T10:02:09.461Z,66.10
2018-08-20T10:04:37.942Z,66.00
2018-08-20T10:07:06.391Z,65.10
2018-08-20T10:09:34.799Z,65.70
2018-08-20T10:12:03.224Z,65.50
2018-08-20T10:14:31.666Z,65.10
2018-08-20T10:17:00.100Z,64.90
2018-08-20T10:19:28.533Z,64.90
2018-08-20T10:21:56.945Z,64.70
2018-08-20T10:24:25.357Z,64.50
2018-08-20T10:26:53.752Z,64.40
2018-08-20T10:29:22.304Z,64.30
2018-08-20T10:31:50.908Z,64.30
2018-08-20T10:34:19.331Z,64.50
2018-08-20T10:36:47.781Z,64.40
2018-08-20T10:39:16.207Z,64.40
2018-08-20T10:41:44.599Z,64.30
2018-08-20T10:44:13.088Z,64.30
2018-08-20T10:46:41.518Z,64.30
2018-08-20T10:49:10.000Z,64.40
2018-08-20T10:51:38.482Z,64.30
2018-08-20T10:54:06.919Z,64.10
2018-08-20T10:56:35.350Z,64.20
2018-08-20T10:59:03.784Z,64.00
2018-08-20T11:01:32.211Z,64.00
2018-08-20T11:04:00.763Z,63.70
2018-08-20T11:06:30.135Z,63.70
2018-08-20T11:08:59.296Z,63.80
2018-08-20T11:11:27.695Z,63.90
2018-08-20T11:13:56.155Z,63.40
2018-08-20T11:16:24.636Z,63.30
2018-08-20T11:18:53.085Z,63.30
2018-08-20T11:21:21.668Z,63.20
2018-08-20T11:23:50.081Z,63.40
2018-08-20T11:26:18.501Z,63.50
2018-08-20T11:28:47.008Z,63.40
2018-08-20T11:31:15.799Z,63.30
2018-08-20T11:33:44.269Z,63.20
2018-08-20T11:36:12.728Z,63.50
2018-08-20T11:38:41.125Z,63.10
2018-08-20T11:41:09.578Z,63.00
2018-08-20T11:43:38.062Z,62.80
2018-08-20T11:46:06.829Z,62.40
2018-08-20T11:48:35.256Z,62.30
2018-08-20T11:51:03.671Z,62.30
2018-08-20T11:53:32.085Z,62.80
2018-08-20T11:56:00.507Z,62.20
2018-08-20T11:58:29.021Z,62.10
2018-08-20T12:00:57.471Z,61.90
2018-08-20T12:03:25.897Z,61.80
2018-08-20T12:05:54.387Z,62.10
2018-08-20T12:08:22.862Z,61.90
2018-08-20T12:10:51.304Z,61.90
2018-08-20T12:13:19.743Z,61.80
2018-08-20T12:15:48.152Z,62.40
2018-08-20T12:18:16.627Z,62.40
2018-08-20T12:20:45.099Z,62.40
2018-08-20T12:23:13.624Z,62.50
2018-08-20T12:25:42.079Z,62.50
2018-08-20T12:28:10.542Z,62.50
2018-08-20T12:30:38.994Z,62.60
2018-08-20T12:33:07.672Z,62.40
2018-08-20T12:35:36.167Z,62.40
2018-08-20T12:38:04.584Z,62.40
2018-08-20T12:40:33.015Z,62.30
2018-08-20T12:43:01.433Z,62.30
2018-08-20T12:45:29.839Z,62.00
2018-08-20T12:47:58.249Z,62.00
2018-08-20T12:50:26.909Z,62.00
2018-08-20T12:52:55.574Z,62.20
2018-08-20T12:55:23.963Z,62.00
2018-08-20T12:57:52.420Z,62.00
2018-08-20T13:00:20.823Z,62.00
2018-08-20T13:02:49.285Z,61.80
2018-08-20T13:05:17.709Z,61.80
2018-08-20T13:07:46.137Z,61.60
2018-08-20T13:10:14.549Z,61.40
2018-08-20T13:12:42.985Z,61.50
2018-08-20T13:15:11.414Z,61.60
2018-08-20T13:17:39.863Z,61.60
2018-08-20T13:20:08.276Z,61.60
2018-08-20T13:22:36.686Z,61.60
2018-08-20T13:25:05.863Z,61.60
2018-08-20T13:27:34.280Z,61.50
2018-08-20T13:30:02.694Z,61.40
2018-08-20T13:32:31.104Z,61.30
2018-08-20T13:34:59.544Z,61.20
2018-08-20T13:37:27.997Z,61.20
2018-08-20T13:39:56.395Z,61.00
2018-08-20T13:42:24.886Z,61.10
2018-08-20T13:44:53.300Z,61.10
2018-08-20T13:47:21.785Z,61.10
2018-08-20T13:49:50.260Z,61.00
2018-08-20T13:52:18.711Z,61.00
2018-08-20T13:54:47.151Z,61.00
2018-08-20T13:57:15.573Z,60.80
2018-08-20T13:59:43.985Z,60.60
2018-08-20T14:02:12.429Z,60.80
2018-08-20T14:04:40.842Z,60.40
2018-08-20T14:07:09.292Z,60.20
2018-08-20T14:09:37.715Z,59.90
2018-08-20T14:12:06.133Z,59.80
2018-08-20T14:14:34.528Z,60.50
2018-08-20T14:17:02.931Z,59.60
2018-08-20T14:19:31.413Z,59.60
2018-08-20T14:21:59.886Z,59.60
2018-08-20T14:24:28.314Z,59.70
2018-08-20T14:26:56.763Z,59.80
2018-08-20T14:29:25.176Z,59.90
2018-08-20T14:31:53.574Z,60.20
2018-08-20T14:34:22.079Z,60.20
2018-08-20T14:36:52.618Z,60.30
2018-08-20T14:39:20.974Z,60.30
2018-08-20T14:41:49.394Z,60.40
2018-08-20T14:44:17.823Z,60.40
2018-08-20T14:46:46.242Z,60.40
2018-08-20T14:49:14.699Z,60.30
2018-08-20T14:51:43.118Z,60.00
2018-08-20T14:54:11.516Z,60.20
2018-08-20T14:56:39.934Z,60.00
2018-08-20T14:59:08.362Z,59.90
2018-08-20T15:01:36.848Z,59.80
2018-08-20T15:04:05.297Z,59.70
2018-08-20T15:06:34.871Z,59.50
2018-08-20T15:09:03.794Z,59.50
2018-08-20T15:11:32.171Z,59.40
2018-08-20T15:14:04.294Z,59.30
2018-08-20T15:16:32.768Z,59.30
2018-08-20T15:19:01.211Z,59.30
2018-08-20T15:21:29.958Z,59.30
2018-08-20T15:23:58.426Z,59.30
2018-08-20T15:26:27.043Z,59.30
2018-08-20T15:28:55.423Z,59.30
2018-08-20T15:31:23.837Z,59.30
2018-08-20T15:33:52.436Z,59.30
2018-08-20T15:36:20.868Z,59.30
2018-08-20T15:38:49.355Z,59.40
2018-08-20T15:41:17.810Z,59.40
2018-08-20T15:43:46.217Z,59.40
2018-08-20T15:46:14.709Z,59.50
2018-08-20T15:48:43.176Z,59.60
2018-08-20T15:51:11.597Z,60.20
2018-08-20T15:53:40.265Z,59.60
2018-08-20T15:56:08.787Z,59.60
2018-08-20T15:58:37.247Z,59.60
2018-08-20T16:01:05.703Z,59.70
2018-08-20T16:03:34.344Z,59.60
2018-08-20T16:06:03.007Z,59.60
2018-08-20T16:08:31.397Z,59.60
2018-08-20T16:10:59.899Z,59.60
2018-08-20T16:13:28.342Z,59.40
2018-08-20T16:15:56.842Z,59.30
2018-08-20T16:18:25.303Z,59.40
2018-08-20T16:20:54.135Z,59.50
2018-08-20T16:23:22.562Z,59.40
2018-08-20T16:25:50.990Z,59.30
2018-08-20T16:28:19.421Z,59.40
2018-08-20T16:30:47.844Z,59.30
2018-08-20T16:33:16.360Z,59.20
2018-08-20T16:35:44.759Z,59.20
2018-08-20T16:38:13.277Z,59.20
2018-08-20T16:40:41.704Z,59.20
2018-08-20T16:43:10.130Z,59.20
2018-08-20T16:45:38.649Z,59.10
2018-08-20T16:48:07.173Z,59.10
2018-08-20T16:50:35.656Z,59.10
2018-08-20T16:53:04.115Z,59.20
2018-08-20T16:55:32.586Z,59.20
2018-08-20T16:58:01.045Z,59.20
2018-08-20T17:00:29.503Z,59.20
2018-08-20T17:02:57.962Z,59.20
2018-08-20T17:05:28.631Z,59.30
2018-08-20T17:07:57.094Z,59.30
2018-08-20T17:10:25.543Z,59.30
2018-08-20T17:12:54.008Z,59.40
2018-08-20T17:15:22.461Z,59.50
2018-08-20T17:17:50.893Z,59.40
2018-08-20T17:20:19.324Z,59.40
2018-08-20T17:22:47.780Z,59.40
2018-08-20T17:25:16.226Z,59.30
2018-08-20T17:27:50.062Z,59.30
2018-08-20T17:30:18.550Z,59.20
2018-08-20T17:32:46.996Z,59.30
2018-08-20T17:35:15.433Z,59.30
2018-08-20T17:37:43.880Z,59.20
2018-08-20T17:40:12.333Z,59.20
2018-08-20T17:42:40.824Z,59.30
2018-08-20T17:45:09.647Z,59.20
2018-08-20T17:47:40.136Z,59.10
2018-08-20T17:50:23.900Z,59.70
2018-08-20T17:52:52.350Z,59.20
2018-08-20T17:55:20.771Z,59.20
2018-08-20T17:57:49.222Z,59.20
2018-08-20T18:00:25.922Z,59.20
2018-08-20T18:02:54.336Z,59.10
2018-08-20T18:05:24.392Z,59.10
2018-08-20T18:07:53.614Z,59.10
2018-08-20T18:10:22.056Z,59.10
2018-08-20T18:12:52.492Z,59.10
2018-08-20T18:15:24.774Z,59.10
2018-08-20T18:17:53.182Z,59.00
2018-08-20T18:20:21.646Z,59.00
2018-08-20T18:22:50.129Z,58.90
2018-08-20T18:25:18.548Z,59.00
2018-08-20T18:27:46.999Z,59.10
2018-08-20T18:30:17.499Z,59.30
2018-08-20T18:32:46.248Z,59.50
2018-08-20T18:35:22.408Z,59.60
2018-08-20T18:37:52.333Z,59.80
2018-08-20T18:40:20.831Z,60.00
2018-08-20T18:42:49.322Z,60.10
2018-08-20T18:45:17.752Z,60.30
2018-08-20T18:47:46.207Z,60.40
2018-08-20T18:50:14.720Z,60.70
2018-08-20T18:52:43.164Z,60.80
2018-08-20T18:55:11.663Z,61.80
2018-08-20T18:57:40.119Z,61.00
2018-08-20T19:00:12.913Z,61.20
2018-08-20T19:02:51.648Z,61.40
2018-08-20T19:05:20.619Z,61.50
2018-08-20T19:07:49.077Z,61.50
2018-08-20T19:10:20.988Z,61.60
2018-08-20T19:12:49.741Z,61.70
2018-08-20T19:15:36.400Z,61.70
2018-08-20T19:18:06.416Z,61.90
2018-08-20T19:20:34.883Z,61.90
2018-08-20T19:23:03.598Z,62.10
2018-08-20T19:25:32.122Z,62.10
2018-08-20T19:30:41.340Z,63.10
2018-08-20T19:33:15.416Z,62.40
2018-08-20T19:35:43.847Z,62.50
2018-08-20T19:38:12.313Z,62.60
2018-08-20T19:40:40.747Z,62.70
2018-08-20T19:43:09.199Z,62.70
2018-08-20T19:45:42.168Z,62.80
2018-08-20T19:48:11.191Z,62.90
2018-08-20T19:50:39.727Z,63.00
2018-08-20T19:53:23.345Z,63.10
2018-08-20T19:55:52.178Z,63.10
2018-08-20T19:58:27.713Z,63.30
2018-08-20T20:01:07.616Z,63.20
2018-08-20T20:03:36.072Z,63.30
2018-08-20T20:06:04.541Z,63.30
2018-08-20T20:08:33.143Z,63.40
2018-08-20T20:11:01.594Z,63.50
2018-08-20T20:13:29.997Z,63.60
2018-08-20T20:16:00.249Z,63.80
2018-08-20T20:18:28.696Z,63.90
2018-08-20T20:20:57.238Z,63.90
2018-08-20T20:23:25.639Z,63.90
2018-08-20T20:25:54.079Z,63.90
2018-08-20T20:28:22.511Z,64.00
2018-08-20T20:30:50.941Z,64.10
2018-08-20T20:33:19.383Z,64.10
2018-08-20T20:35:47.792Z,64.10
2018-08-20T20:38:16.264Z,64.20
2018-08-20T20:40:44.693Z,64.30
2018-08-20T20:43:13.134Z,64.20
2018-08-20T20:45:41.544Z,63.80
2018-08-20T20:48:10.002Z,63.60
2018-08-20T20:50:38.680Z,63.30
2018-08-20T20:53:07.119Z,63.30
2018-08-20T20:55:35.553Z,63.50
2018-08-20T20:58:04.020Z,63.30
2018-08-20T21:00:32.464Z,63.30
2018-08-20T21:03:04.987Z,63.30
2018-08-20T21:05:33.426Z,63.30
2018-08-20T21:08:02.168Z,63.30
2018-08-20T21:10:34.855Z,63.40
2018-08-20T21:13:03.284Z,63.50
2018-08-20T21:15:31.785Z,63.50
2018-08-20T21:18:00.699Z,63.50
2018-08-20T21:20:29.148Z,63.50
2018-08-20T21:22:57.659Z,63.50
2018-08-20T21:25:26.117Z,63.30
2018-08-20T21:27:54.551Z,63.30
2018-08-20T21:30:25.149Z,63.30
2018-08-20T21:32:53.589Z,63.20
2018-08-20T21:35:23.086Z,63.10
2018-08-20T21:37:51.509Z,63.20
2018-08-20T21:40:25.342Z,63.20
2018-08-20T21:42:53.770Z,63.10
2018-08-20T21:45:22.214Z,63.10
2018-08-20T21:47:50.739Z,63.90
2018-08-20T21:50:19.163Z,63.00
2018-08-20T21:52:48.245Z,63.00
2018-08-20T21:55:16.764Z,62.90
2018-08-20T21:57:49.684Z,62.90
2018-08-20T22:00:19.686Z,62.80
2018-08-20T22:02:53.305Z,62.80
2018-08-20T22:05:21.783Z,62.80
2018-08-20T22:07:50.351Z,62.70
2018-08-20T22:10:18.765Z,62.80
2018-08-20T22:12:47.277Z,62.70
2018-08-20T22:15:15.685Z,62.80
2018-08-20T22:17:44.175Z,62.70
2018-08-20T22:20:12.629Z,62.80
2018-08-20T22:22:41.059Z,62.80
2018-08-20T22:25:13.992Z,62.90
2018-08-20T22:27:47.839Z,62.90
2018-08-20T22:30:16.544Z,63.00
2018-08-20T22:32:45.498Z,63.00
2018-08-20T22:35:19.236Z,63.00
2018-08-20T22:37:50.299Z,63.00
2018-08-20T22:40:20.916Z,63.10
2018-08-20T22:42:51.418Z,63.10
2018-08-20T22:45:20.717Z,63.10
2018-08-20T22:47:50.058Z,63.10
2018-08-20T22:50:18.567Z,63.10
2018-08-20T22:52:49.449Z,63.10
2018-08-20T22:55:19.072Z,63.10
2018-08-20T22:57:59.351Z,63.10
2018-08-20T23:00:28.220Z,63.10
2018-08-20T23:02:57.422Z,62.90
2018-08-20T23:05:29.161Z,63.00
2018-08-20T23:08:00.186Z,63.00
2018-08-20T23:10:28.619Z,63.00
2018-08-20T23:12:57.049Z,63.00
2018-08-20T23:15:25.510Z,63.10
2018-08-20T23:17:53.950Z,63.10
2018-08-20T23:20:27.684Z,63.00
2018-08-20T23:22:56.136Z,63.30
2018-08-20T23:26:27.654Z,63.20
2018-08-20T23:28:56.104Z,63.40
2018-08-20T23:31:24.546Z,63.60
2018-08-20T23:33:52.982Z,63.50
2018-08-20T23:36:21.456Z,63.50
2018-08-20T23:38:49.881Z,63.50
2018-08-20T23:41:21.812Z,63.60
2018-08-20T23:43:55.715Z,63.50
2018-08-20T23:46:35.787Z,63.60
2018-08-20T23:49:04.228Z,63.70
2018-08-20T23:51:32.696Z,63.70
2018-08-20T23:54:01.172Z,63.70
2018-08-20T23:56:29.659Z,63.50
2018-08-20T23:58:58.617Z,63.50
